Airfield :
LOGIN :

Register | Disclaimer

   EN    FR    IT 

 










Legend :    VFR   Marginal VFR   IFR   Intensive IFR   Very Intensive IFR
Visi :
Ceiling :
>= 8 km
>= 3000ft
5 to 8 km
1000 to 3000 ft
1500m to 5 km
500 to 1000 ft
800 to 1500m
200 to 500 ft
< 800m
< 200 ft
Symbols :   Thunderstorms  Fog  Heavy snow  Heavy precipitations  Wind > 20 kt
SIGMETs :     Misc.  Thunderstorms  Icing  Turbulence  Mountain Waves  Volcanic Ashes






- Airport Elevation : 59 ft
- IATA code : TSF


LIPH - Treviso

CURRENT METAR :
  • 181850Z 15003KT 120V180 CAVOK 25/18 Q1016

EXPIRED METARs :
  • 181820Z 14004KT CAVOK 26/17 Q1016
  • 181750Z 15004KT CAVOK 26/17 Q1016
  • 181720Z 14005KT CAVOK 27/18 Q1016
  • 181650Z 14006KT CAVOK 28/18 Q1016
  • 181620Z 13007KT CAVOK 28/17 Q1016
  • 181550Z 15005KT 120V190 CAVOK 28/17 Q1017
  • 181520Z 15006KT 120V190 CAVOK 29/17 Q1017
  • 181450Z 16007KT 110V210 CAVOK 29/17 Q1017
  • 181420Z 15007KT 100V180 CAVOK 29/17 Q1017

TAF TAF LIPH
Valid from the 18 at 18:00 until the 19 at 18:00 UTC


181700Z 1818/1918 VRB05KT CAVOK



MET'MAP, your aeronautical weather chart ! - Copyright ORBIFLY December 2007 - Disclaimer

ORBIFLY MET'MAP TEAM :

Programming & Development : Alexandra Zaïnal
Original concept : Baudouin d'Aumeries
Technical & hardware support : Manuel Goepfert
Assistance : Marc-Olivier Méhu




SOURCES & CREDITS :

   NOAA